createdAt,value
2023-01-24T00:00:43.466Z,102732.63
2023-01-24T00:03:13.596Z,102746.78
2023-01-24T00:05:42.391Z,102742.81
2023-01-24T00:08:11.898Z,102758.75
2023-01-24T00:10:39.376Z,102769.63
2023-01-24T00:13:07.526Z,102766.94
2023-01-24T00:15:34.613Z,102754.22
2023-01-24T00:18:01.710Z,102764.28
2023-01-24T00:20:28.875Z,102766.16
2023-01-24T00:22:56.000Z,102740.84
2023-01-24T00:25:23.850Z,102753.22
2023-01-24T00:27:50.923Z,102748.03
2023-01-24T00:30:18.159Z,102742.81
2023-01-24T00:32:46.185Z,102751.66
2023-01-24T00:35:13.675Z,102742.81
2023-01-24T00:37:41.539Z,102745.56
2023-01-24T00:40:10.301Z,102746.34
2023-01-24T00:42:37.403Z,102751.44
2023-01-24T00:45:05.961Z,102758.09
2023-01-24T00:47:33.262Z,102759.44
2023-01-24T00:50:00.279Z,102752.66
2023-01-24T00:52:27.598Z,102734.16
2023-01-24T00:54:55.043Z,102753.41
2023-01-24T00:57:23.467Z,102760.31
2023-01-24T00:59:50.606Z,102755.22
2023-01-24T01:02:17.681Z,102755.88
2023-01-24T01:04:44.807Z,102728.66
2023-01-24T01:07:11.896Z,102756.53
2023-01-24T01:09:39.106Z,102745.47
2023-01-24T01:12:06.454Z,102742.81
2023-01-24T01:14:33.541Z,102751.66
2023-01-24T01:17:00.607Z,102749.00
2023-01-24T01:19:27.854Z,102753.41
2023-01-24T01:21:54.895Z,102752.53
2023-01-24T01:24:21.954Z,102743.47
2023-01-24T01:26:49.025Z,102765.19
2023-01-24T01:29:16.138Z,102747.16
2023-01-24T01:31:43.348Z,102740.84
2023-01-24T01:34:12.018Z,102766.16
2023-01-24T01:36:39.249Z,102762.53
2023-01-24T01:39:07.205Z,102766.72
2023-01-24T01:41:34.641Z,102759.41
2023-01-24T01:44:48.259Z,102766.53
2023-01-24T01:47:23.838Z,102753.44
2023-01-24T01:50:16.093Z,102761.88
2023-01-24T01:52:44.096Z,102759.22
2023-01-24T01:55:17.918Z,102750.34
2023-01-24T01:57:46.416Z,102753.69
2023-01-24T02:00:21.297Z,102753.69
2023-01-24T02:03:16.728Z,102757.25
2023-01-24T02:05:44.318Z,102746.84
2023-01-24T02:08:14.444Z,102749.91
2023-01-24T02:11:00.513Z,102755.22
2023-01-24T02:13:27.746Z,102730.00
2023-01-24T02:16:04.111Z,102756.00
2023-01-24T02:18:39.677Z,102753.47
2023-01-24T02:21:12.658Z,102756.56
2023-01-24T02:24:00.234Z,102763.44
2023-01-24T02:26:29.572Z,102768.75
2023-01-24T02:28:58.501Z,102755.22
2023-01-24T02:31:26.153Z,102753.56
2023-01-24T02:33:53.586Z,102757.25
2023-01-24T02:36:34.073Z,102748.81
2023-01-24T02:39:20.004Z,102750.56
2023-01-24T02:41:51.011Z,102748.03
2023-01-24T02:44:38.448Z,102762.31
2023-01-24T02:47:05.634Z,102760.53
2023-01-24T02:49:32.823Z,102767.28
2023-01-24T02:52:18.476Z,102757.91
2023-01-24T02:54:45.577Z,102764.09
2023-01-24T02:57:31.414Z,102764.09
2023-01-24T02:59:58.606Z,102767.63
2023-01-24T03:02:26.596Z,102767.41
2023-01-24T03:04:53.722Z,102772.72
2023-01-24T03:07:21.133Z,102776.94
2023-01-24T03:09:53.505Z,102763.00
2023-01-24T03:12:42.226Z,102772.50
2023-01-24T03:15:29.633Z,102769.75
2023-01-24T03:18:18.329Z,102773.41
2023-01-24T03:21:07.141Z,102774.94
2023-01-24T03:23:53.233Z,102768.06
2023-01-24T03:26:39.089Z,102769.72
2023-01-24T03:29:25.529Z,102777.72
2023-01-24T03:32:11.334Z,102761.00
2023-01-24T03:34:50.205Z,102764.53
2023-01-24T03:37:41.528Z,102773.94
2023-01-24T03:40:14.837Z,102773.16
2023-01-24T03:42:49.497Z,102773.41
2023-01-24T03:45:27.348Z,102768.31
2023-01-24T03:48:01.651Z,102761.66
2023-01-24T03:50:51.005Z,102763.44
2023-01-24T03:53:20.050Z,102766.19
2023-01-24T03:55:53.670Z,102756.00
2023-01-24T03:58:21.263Z,102749.72
2023-01-24T04:00:48.860Z,102760.09
2023-01-24T04:03:48.045Z,102745.63
2023-01-24T04:06:15.498Z,102750.81
2023-01-24T04:08:42.501Z,102748.38
2023-01-24T04:11:09.696Z,102737.31
2023-01-24T04:13:36.801Z,102742.41
2023-01-24T04:16:04.044Z,102743.28
2023-01-24T04:19:06.271Z,102741.75
2023-01-24T04:21:33.357Z,102744.63
2023-01-24T04:24:00.592Z,102754.00
2023-01-24T04:26:29.172Z,102748.91
2023-01-24T04:28:56.498Z,102740.53
2023-01-24T04:31:23.848Z,102737.97
2023-01-24T04:34:11.281Z,102747.25
2023-01-24T04:36:40.661Z,102748.16
2023-01-24T04:39:07.749Z,102745.72
2023-01-24T04:41:48.677Z,102736.41
2023-01-24T04:44:16.794Z,102745.84
2023-01-24T04:46:44.652Z,102737.50
2023-01-24T04:49:11.900Z,102748.16
2023-01-24T04:51:44.039Z,102751.47
2023-01-24T04:54:18.502Z,102751.03
2023-01-24T04:56:47.951Z,102763.53
2023-01-24T04:59:15.226Z,102763.66
2023-01-24T05:01:44.052Z,102763.66
2023-01-24T05:04:25.995Z,102768.75
2023-01-24T05:06:53.115Z,102765.41
2023-01-24T05:09:20.197Z,102763.66
2023-01-24T05:11:56.275Z,102758.56
2023-01-24T05:14:24.191Z,102752.81
2023-01-24T05:16:51.562Z,102756.56
2023-01-24T05:19:18.665Z,102762.78
2023-01-24T05:21:46.014Z,102754.59
2023-01-24T05:24:14.570Z,102768.41
2023-01-24T05:26:41.786Z,102770.06
2023-01-24T05:29:10.544Z,102761.00
2023-01-24T05:31:39.127Z,102770.94
2023-01-24T05:34:06.547Z,102766.97
2023-01-24T05:36:34.033Z,102766.28
2023-01-24T05:39:02.474Z,102764.75
2023-01-24T05:41:31.749Z,102770.72
2023-01-24T05:43:59.885Z,102772.72
2023-01-24T05:46:30.957Z,102770.72
2023-01-24T05:49:09.255Z,102782.91
2023-01-24T05:51:36.524Z,102763.44
2023-01-24T05:54:05.049Z,102781.69
2023-01-24T05:56:54.646Z,102784.13
2023-01-24T05:59:21.860Z,102780.59
2023-01-24T06:01:48.937Z,102786.56
2023-01-24T06:04:17.220Z,102786.34
2023-01-24T06:06:44.267Z,102783.81
2023-01-24T06:09:11.501Z,102778.38
2023-01-24T06:11:39.348Z,102772.84
2023-01-24T06:14:19.161Z,102793.78
2023-01-24T06:16:48.088Z,102782.47
2023-01-24T06:19:16.657Z,102798.41
2023-01-24T06:21:46.404Z,102789.56
2023-01-24T06:24:22.200Z,102800.63
2023-01-24T06:27:13.682Z,102797.72
2023-01-24T06:29:40.974Z,102794.84
2023-01-24T06:32:13.662Z,102798.31
2023-01-24T06:34:58.866Z,102800.19
2023-01-24T06:37:51.769Z,102808.78
2023-01-24T06:40:21.720Z,102808.78
2023-01-24T06:42:49.225Z,102812.91
2023-01-24T06:45:17.154Z,102820.78
2023-01-24T06:47:45.074Z,102823.31
2023-01-24T06:50:17.156Z,102819.22
2023-01-24T06:52:49.064Z,102826.09
2023-01-24T06:55:16.779Z,102824.31
2023-01-24T06:57:44.967Z,102832.94
2023-01-24T07:00:12.767Z,102831.19
2023-01-24T07:02:39.943Z,102834.50
2023-01-24T07:05:07.273Z,102831.19
2023-01-24T07:07:34.403Z,102833.16
2023-01-24T07:10:01.490Z,102834.16
2023-01-24T07:12:28.543Z,102830.50
2023-01-24T07:14:55.656Z,102841.81
2023-01-24T07:17:22.967Z,102836.72
2023-01-24T07:19:50.454Z,102838.50
2023-01-24T07:22:17.849Z,102843.34
2023-01-24T07:24:46.152Z,102841.13
2023-01-24T07:27:13.456Z,102842.25
2023-01-24T07:29:40.715Z,102850.88
2023-01-24T07:32:09.824Z,102825.38
2023-01-24T07:34:37.104Z,102827.41
2023-01-24T07:37:04.144Z,102824.06
2023-01-24T07:39:31.499Z,102837.28
2023-01-24T07:41:58.675Z,102850.66
2023-01-24T07:44:26.080Z,102849.13
2023-01-24T07:46:53.209Z,102838.72
2023-01-24T07:49:20.362Z,102843.47
2023-01-24T07:51:49.439Z,102835.81
2023-01-24T07:54:18.746Z,102841.13
2023-01-24T07:56:45.769Z,102822.53
2023-01-24T07:59:14.921Z,102832.75
2023-01-24T08:01:42.208Z,102815.22
2023-01-24T08:04:10.109Z,102834.94
2023-01-24T08:06:37.121Z,102838.47
2023-01-24T08:09:04.270Z,102840.72
2023-01-24T08:11:31.387Z,102844.47
2023-01-24T08:13:58.431Z,102830.94
2023-01-24T08:16:27.248Z,102846.66
2023-01-24T08:18:54.411Z,102838.25
2023-01-24T08:21:21.454Z,102833.59
2023-01-24T08:23:48.667Z,102840.44
2023-01-24T08:26:15.760Z,102832.25
2023-01-24T08:28:42.763Z,102827.38
2023-01-24T08:31:09.939Z,102837.03
2023-01-24T08:33:39.175Z,102826.03
2023-01-24T08:36:06.869Z,102839.78
2023-01-24T08:38:34.107Z,102833.91
2023-01-24T08:41:04.428Z,102841.97
2023-01-24T08:43:31.995Z,102847.06
2023-01-24T08:45:59.100Z,102851.75
2023-01-24T08:48:26.374Z,102854.06
2023-01-24T08:50:53.483Z,102858.06
2023-01-24T08:53:20.537Z,102857.03
2023-01-24T08:55:51.461Z,102867.66
2023-01-24T08:58:18.615Z,102864.16
2023-01-24T09:00:45.711Z,102865.13
2023-01-24T09:03:13.348Z,102863.16
2023-01-24T09:05:40.398Z,102866.91
2023-01-24T09:08:07.601Z,102873.00
2023-01-24T09:10:34.864Z,102873.00
2023-01-24T09:13:02.837Z,102869.25
2023-01-24T09:15:29.943Z,102865.47
2023-01-24T09:17:57.178Z,102887.84
2023-01-24T09:20:24.444Z,102884.09
2023-01-24T09:22:51.577Z,102878.78
2023-01-24T09:25:18.701Z,102889.97
2023-01-24T09:27:46.636Z,102885.44
2023-01-24T09:30:14.334Z,102890.75
2023-01-24T09:32:45.172Z,102897.41
2023-01-24T09:35:12.363Z,102899.38
2023-01-24T09:37:41.301Z,102898.72
2023-01-24T09:40:19.480Z,102898.94
2023-01-24T09:42:58.174Z,102891.22
2023-01-24T09:45:38.281Z,102904.94
2023-01-24T09:48:12.099Z,102896.63
2023-01-24T09:50:52.633Z,102892.31
2023-01-24T09:53:36.376Z,102899.63
2023-01-24T09:56:05.464Z,102899.84
2023-01-24T09:59:01.486Z,102903.59
2023-01-24T10:01:28.504Z,102896.72
2023-01-24T10:03:55.712Z,102888.53
2023-01-24T10:06:27.520Z,102883.63
2023-01-24T10:09:14.429Z,102879.38
2023-01-24T10:11:59.835Z,102876.47
2023-01-24T10:14:44.942Z,102878.69
2023-01-24T10:17:28.827Z,102876.22
2023-01-24T10:20:07.359Z,102858.50
2023-01-24T10:23:03.799Z,102865.56
2023-01-24T10:25:51.003Z,102854.69
2023-01-24T10:28:34.241Z,102856.00
2023-01-24T10:31:01.511Z,102854.66
2023-01-24T10:33:34.278Z,102860.16
2023-01-24T10:36:18.364Z,102853.72
2023-01-24T10:38:45.453Z,102854.00
2023-01-24T10:41:20.821Z,102850.75
2023-01-24T10:43:54.881Z,102860.09
2023-01-24T10:46:52.744Z,102857.88
2023-01-24T10:49:29.913Z,102861.63
2023-01-24T10:52:17.953Z,102858.25
2023-01-24T10:54:56.665Z,102856.72
2023-01-24T10:57:50.273Z,102853.16
2023-01-24T11:00:29.171Z,102849.59
2023-01-24T11:03:17.894Z,102837.84
2023-01-24T11:05:49.453Z,102838.03
2023-01-24T11:08:25.633Z,102840.03
2023-01-24T11:10:57.950Z,102829.63
2023-01-24T11:13:28.125Z,102822.72
2023-01-24T11:16:05.145Z,102816.53
2023-01-24T11:18:34.805Z,102824.06
2023-01-24T11:21:09.496Z,102815.66
2023-01-24T11:23:37.038Z,102817.41
2023-01-24T11:26:06.067Z,102824.41
2023-01-24T11:28:38.482Z,102821.84
2023-01-24T11:31:15.740Z,102822.53
2023-01-24T11:34:13.263Z,102820.75
2023-01-24T11:36:43.250Z,102813.31
2023-01-24T11:39:49.665Z,102809.44
2023-01-24T11:42:35.361Z,102813.47
2023-01-24T11:45:27.015Z,102813.28
2023-01-24T11:48:21.344Z,102808.84
2023-01-24T11:51:08.210Z,102808.97
2023-01-24T11:54:15.774Z,102768.28
2023-01-24T11:57:10.487Z,102791.97
2023-01-24T12:00:02.936Z,102785.00
2023-01-24T12:02:57.578Z,102774.47
2023-01-24T12:05:41.395Z,102778.91
2023-01-24T12:08:45.917Z,102778.91
2023-01-24T12:11:35.660Z,102780.88
2023-01-24T12:14:30.247Z,102782.94
2023-01-24T12:17:18.548Z,102776.50
2023-01-24T12:19:59.972Z,102783.59
2023-01-24T12:22:29.435Z,102783.41
2023-01-24T12:25:05.360Z,102792.25
2023-01-24T12:27:37.153Z,102790.47
2023-01-24T12:30:16.641Z,102781.06
2023-01-24T12:32:53.783Z,102776.94
2023-01-24T12:35:33.529Z,102791.09
2023-01-24T12:38:10.451Z,102782.25
2023-01-24T12:41:28.086Z,102786.53
2023-01-24T12:44:23.926Z,102785.44
2023-01-24T12:47:26.290Z,102789.88
2023-01-24T12:49:59.859Z,102784.75
2023-01-24T12:52:53.884Z,102788.31
2023-01-24T12:55:32.874Z,102791.41
2023-01-24T12:58:06.291Z,102761.72
2023-01-24T13:01:07.887Z,102781.38
2023-01-24T13:03:59.239Z,102797.66
2023-01-24T13:06:48.895Z,102787.06
2023-01-24T13:09:30.484Z,102780.16
2023-01-24T13:12:00.205Z,102767.81
2023-01-24T13:14:42.184Z,102776.66
2023-01-24T13:17:27.737Z,102777.06
2023-01-24T13:20:45.570Z,102773.16
2023-01-24T13:23:36.816Z,102775.72
2023-01-24T13:26:29.868Z,102778.06
2023-01-24T13:29:34.131Z,102782.94
2023-01-24T13:32:13.199Z,102772.44
2023-01-24T13:34:47.813Z,102768.00
2023-01-24T13:37:21.719Z,102770.44
2023-01-24T13:39:59.515Z,102773.13
2023-01-24T13:42:39.822Z,102766.47
2023-01-24T13:45:27.935Z,102763.09
2023-01-24T13:47:57.319Z,102760.44
2023-01-24T13:50:28.189Z,102764.66
2023-01-24T13:53:02.061Z,102764.88
2023-01-24T13:55:31.195Z,102759.97
2023-01-24T13:58:14.084Z,102748.00
2023-01-24T14:00:57.903Z,102749.75
2023-01-24T14:03:38.865Z,102746.06
2023-01-24T14:06:10.569Z,102742.31
2023-01-24T14:08:44.405Z,102744.06
2023-01-24T14:11:20.585Z,102748.59
2023-01-24T14:13:56.431Z,102747.59
2023-01-24T14:16:29.389Z,102747.19
2023-01-24T14:19:05.136Z,102757.16
2023-01-24T14:21:45.832Z,102758.97
2023-01-24T14:24:46.416Z,102744.53
2023-01-24T14:27:36.766Z,102743.25
2023-01-24T14:30:28.836Z,102749.91
2023-01-24T14:33:06.114Z,102749.69
2023-01-24T14:35:39.893Z,102748.91
2023-01-24T14:38:18.565Z,102738.31
2023-01-24T14:40:55.902Z,102741.25
2023-01-24T14:43:33.548Z,102721.00
2023-01-24T14:46:11.127Z,102736.34
2023-01-24T14:48:38.521Z,102728.50
2023-01-24T14:51:08.579Z,102732.06
2023-01-24T14:53:36.135Z,102732.81
2023-01-24T14:56:11.741Z,102726.34
2023-01-24T14:58:38.894Z,102729.72
2023-01-24T15:01:24.459Z,102736.34
2023-01-24T15:03:51.736Z,102731.84
2023-01-24T15:06:20.223Z,102731.25
2023-01-24T15:08:48.632Z,102725.97
2023-01-24T15:11:22.314Z,102732.81
2023-01-24T15:13:53.265Z,102737.16
2023-01-24T15:16:34.614Z,102728.50
2023-01-24T15:19:07.271Z,102731.72
2023-01-24T15:21:49.606Z,102740.59
2023-01-24T15:24:28.938Z,102729.09
2023-01-24T15:26:57.704Z,102743.59
2023-01-24T15:29:47.384Z,102747.72
2023-01-24T15:32:39.138Z,102742.41
2023-01-24T15:35:31.899Z,102747.50
2023-01-24T15:38:26.554Z,102748.09
2023-01-24T15:41:16.368Z,102754.75
2023-01-24T15:43:50.956Z,102747.75
2023-01-24T15:46:58.842Z,102738.03
2023-01-24T15:49:37.371Z,102748.22
2023-01-24T15:52:06.553Z,102742.94
2023-01-24T15:54:34.324Z,102742.94
2023-01-24T15:57:04.337Z,102741.13
2023-01-24T15:59:32.996Z,102744.47
2023-01-24T16:02:03.062Z,102753.78
2023-01-24T16:04:30.171Z,102742.28
2023-01-24T16:06:57.323Z,102756.63
2023-01-24T16:09:25.535Z,102740.38
2023-01-24T16:11:52.642Z,102735.28
2023-01-24T16:14:24.872Z,102748.22
2023-01-24T16:16:55.711Z,102721.41
2023-01-24T16:19:24.826Z,102729.59
2023-01-24T16:21:52.732Z,102738.03
2023-01-24T16:24:20.537Z,102739.59
2023-01-24T16:26:53.446Z,102733.69
2023-01-24T16:29:29.858Z,102723.28
2023-01-24T16:31:57.406Z,102717.44
2023-01-24T16:34:25.006Z,102720.06
2023-01-24T16:36:52.182Z,102721.34
2023-01-24T16:39:21.794Z,102720.53
2023-01-24T16:41:50.367Z,102723.22
2023-01-24T16:44:17.907Z,102708.13
2023-01-24T16:46:50.225Z,102698.66
2023-01-24T16:49:17.640Z,102678.97
2023-01-24T16:51:46.115Z,102719.25
2023-01-24T16:54:13.290Z,102715.78
2023-01-24T16:56:40.441Z,102716.56
2023-01-24T16:59:07.509Z,102713.25
2023-01-24T17:01:34.529Z,102705.31
2023-01-24T17:04:03.424Z,102711.47
2023-01-24T17:06:30.503Z,102719.34
2023-01-24T17:08:58.048Z,102715.03
2023-01-24T17:11:25.164Z,102715.78
2023-01-24T17:13:52.302Z,102676.78
2023-01-24T17:16:19.543Z,102711.06
2023-01-24T17:18:46.722Z,102700.22
2023-01-24T17:21:16.235Z,102724.56
2023-01-24T17:23:44.173Z,102723.81
2023-01-24T17:26:14.328Z,102720.59
2023-01-24T17:28:43.108Z,102712.81
2023-01-24T17:31:17.542Z,102713.03
2023-01-24T17:33:44.917Z,102713.47
2023-01-24T17:36:14.287Z,102717.91
2023-01-24T17:38:43.505Z,102711.13
2023-01-24T17:41:14.891Z,102707.94
2023-01-24T17:43:52.242Z,102719.91
2023-01-24T17:46:19.758Z,102712.06
2023-01-24T17:48:46.953Z,102727.56
2023-01-24T17:51:21.057Z,102719.91
2023-01-24T17:53:48.772Z,102719.72
2023-01-24T17:56:17.761Z,102725.22
2023-01-24T17:58:45.599Z,102725.22
2023-01-24T18:01:16.123Z,102734.63
2023-01-24T18:03:44.909Z,102733.88
2023-01-24T18:06:12.657Z,102728.97
2023-01-24T18:08:39.867Z,102711.06
2023-01-24T18:11:09.139Z,102721.69
2023-01-24T18:13:37.286Z,102735.22
2023-01-24T18:16:11.150Z,102732.06
2023-01-24T18:18:39.681Z,102739.16
2023-01-24T18:21:14.307Z,102744.69
2023-01-24T18:23:41.474Z,102724.56
2023-01-24T18:26:09.713Z,102729.84
2023-01-24T18:28:37.166Z,102748.22
2023-01-24T18:31:11.933Z,102725.44
2023-01-24T18:33:39.959Z,102738.59
2023-01-24T18:36:18.611Z,102734.50
2023-01-24T18:38:46.966Z,102747.56
2023-01-24T18:41:15.112Z,102747.66
2023-01-24T18:43:42.408Z,102736.25
2023-01-24T18:46:12.702Z,102745.09
2023-01-24T18:48:42.064Z,102741.59
2023-01-24T18:51:20.373Z,102729.38
2023-01-24T18:53:49.319Z,102739.78
2023-01-24T18:56:19.907Z,102735.56
2023-01-24T18:58:47.729Z,102730.38
2023-01-24T19:01:20.699Z,102731.16
2023-01-24T19:03:48.135Z,102729.84
2023-01-24T19:06:15.656Z,102718.47
2023-01-24T19:09:00.482Z,102720.34
2023-01-24T19:11:30.626Z,102721.69
2023-01-24T19:13:58.236Z,102735.41
2023-01-24T19:16:25.507Z,102729.72
2023-01-24T19:18:52.930Z,102727.19
2023-01-24T19:21:20.487Z,102728.97
2023-01-24T19:23:48.359Z,102730.72
2023-01-24T19:26:16.991Z,102723.88
2023-01-24T19:28:44.591Z,102722.31
2023-01-24T19:31:11.844Z,102727.44
2023-01-24T19:33:39.084Z,102723.88
2023-01-24T19:36:08.332Z,102726.78
2023-01-24T19:38:35.767Z,102732.78
2023-01-24T19:41:07.558Z,102738.88
2023-01-24T19:43:37.504Z,102736.13
2023-01-24T19:48:53.055Z,102740.34
2023-01-24T19:51:20.661Z,102747.44
2023-01-24T19:53:50.634Z,102740.78
2023-01-24T19:56:18.684Z,102730.59
2023-01-24T19:58:46.034Z,102726.06
2023-01-24T20:01:18.707Z,102733.91
2023-01-24T20:03:46.743Z,102734.47
2023-01-24T20:06:17.058Z,102703.84
2023-01-24T20:08:48.451Z,102721.56
2023-01-24T20:11:16.104Z,102728.75
2023-01-24T20:13:43.714Z,102733.28
2023-01-24T20:16:22.072Z,102692.56
2023-01-24T20:18:57.152Z,102735.03
2023-01-24T20:21:26.734Z,102746.31
2023-01-24T20:23:55.743Z,102746.25
2023-01-24T20:26:22.987Z,102741.91
2023-01-24T20:28:50.342Z,102745.44
2023-01-24T20:31:17.491Z,102735.03
2023-01-24T20:33:47.557Z,102735.84
2023-01-24T20:36:15.797Z,102733.50
2023-01-24T20:38:42.882Z,102731.91
2023-01-24T20:41:16.147Z,102733.50
2023-01-24T20:43:44.292Z,102739.47
2023-01-24T20:46:14.098Z,102730.38
2023-01-24T20:48:41.219Z,102728.81
2023-01-24T20:51:08.769Z,102729.03
2023-01-24T20:53:36.595Z,102735.88
2023-01-24T20:56:06.100Z,102731.03
2023-01-24T20:58:34.279Z,102718.19
2023-01-24T21:01:24.223Z,102721.41
2023-01-24T21:03:52.841Z,102715.09
2023-01-24T21:06:21.913Z,102708.56
2023-01-24T21:08:49.620Z,102718.44
2023-01-24T21:11:22.173Z,102712.75
2023-01-24T21:13:54.267Z,102711.88
2023-01-24T21:16:23.038Z,102718.84
2023-01-24T21:18:53.236Z,102709.31
2023-01-24T21:21:24.776Z,102700.25
2023-01-24T21:23:52.066Z,102694.09
2023-01-24T21:26:20.373Z,102709.56
2023-01-24T21:28:49.978Z,102708.69
2023-01-24T21:31:20.529Z,102684.59
2023-01-24T21:33:49.062Z,102712.47
2023-01-24T21:36:21.472Z,102710.91
2023-01-24T21:38:50.110Z,102721.09
2023-01-24T21:41:42.417Z,102726.63
2023-01-24T21:44:10.960Z,102689.69
2023-01-24T21:46:38.254Z,102719.97
2023-01-24T21:49:05.844Z,102721.53
2023-01-24T21:51:52.988Z,102728.19
2023-01-24T21:54:34.316Z,102726.41
2023-01-24T21:57:31.355Z,102717.09
2023-01-24T22:00:01.093Z,102731.50
2023-01-24T22:02:32.605Z,102730.63
2023-01-24T22:05:00.818Z,102735.50
2023-01-24T22:07:30.405Z,102737.72
2023-01-24T22:09:59.211Z,102737.06
2023-01-24T22:12:27.796Z,102720.03
2023-01-24T22:14:55.528Z,102720.47
2023-01-24T22:17:24.427Z,102708.97
2023-01-24T22:19:54.222Z,102710.72
2023-01-24T22:22:27.273Z,102718.03
2023-01-24T22:25:17.732Z,102700.56
2023-01-24T22:27:46.688Z,102691.13
2023-01-24T22:30:20.391Z,102687.91
2023-01-24T22:32:48.270Z,102687.91
2023-01-24T22:35:17.555Z,102683.59
2023-01-24T22:37:47.486Z,102673.97
2023-01-24T22:40:16.907Z,102679.28
2023-01-24T22:42:44.307Z,102661.81
2023-01-24T22:45:11.719Z,102663.56
2023-01-24T22:47:39.101Z,102668.13
2023-01-24T22:50:06.541Z,102651.63
2023-01-24T22:52:36.700Z,102647.88
2023-01-24T22:55:03.794Z,102639.81
2023-01-24T22:57:31.129Z,102622.66
2023-01-24T22:59:58.631Z,102623.53
2023-01-24T23:02:25.808Z,102602.75
2023-01-24T23:04:52.915Z,102607.84
2023-01-24T23:07:22.661Z,102608.72
2023-01-24T23:09:50.343Z,102591.91
2023-01-24T23:12:36.104Z,102600.31
2023-01-24T23:15:22.039Z,102597.88
2023-01-24T23:17:52.124Z,102594.31
2023-01-24T23:20:37.459Z,102596.09
2023-01-24T23:23:04.579Z,102597.88
2023-01-24T23:25:31.865Z,102594.00
2023-01-24T23:27:58.869Z,102597.09
2023-01-24T23:30:42.117Z,102596.28
2023-01-24T23:33:33.188Z,102565.91
2023-01-24T23:36:01.697Z,102593.44
2023-01-24T23:38:30.679Z,102612.34
2023-01-24T23:40:58.275Z,102602.28
2023-01-24T23:43:25.483Z,102596.53
2023-01-24T23:45:52.546Z,102591.22
2023-01-24T23:48:20.601Z,102593.75
2023-01-24T23:50:56.618Z,102596.75
2023-01-24T23:53:24.712Z,102597.75
2023-01-24T23:55:52.127Z,102595.19
2023-01-24T23:58:19.257Z,102600.97
